Bafoussam, Cameroon
Current Conditions -  °F | °C
As of 6:00 AM on Thursday 23 Oct 2014 (Local Time) from FKKD Reporting Station
Thunderstorm Thunderstorm  
Wind Chill: 75°   Ceiling: 1300
Heat Index: 75°   Visibility: 6mi
Dew Point: 75°   Wind: 0mph
Humidity: 100%   Direction: NA
Pressure: 29.88"   Gusts: NA
Location:  5.49°N, 10.41°E
Report Text: FKKD 230500Z 00000KT 9999 TS FEW004 BKN013 FEW016CB BKN10024/24 Q1012 NOSIG
Loading
Personal Weather Stations






























Interactive Weather Map
Tropical Storm Tracking
New forecast layout! Learn more

10-Day Weather Forecast

Advertisements
Track Severe Weather on mobile